sensor_id;sensor_type;location;lat;lon;timestamp;P1;durP1;ratioP1;P2;durP2;ratioP2
819;SDS011;392;48.838;2.322;2023-06-22T00:01:17;5.20;;;4.80;;
819;SDS011;392;48.838;2.322;2023-06-22T00:03:46;4.90;;;4.50;;
819;SDS011;392;48.838;2.322;2023-06-22T00:06:14;6.37;;;5.17;;
819;SDS011;392;48.838;2.322;2023-06-22T00:08:41;5.33;;;4.73;;
819;SDS011;392;48.838;2.322;2023-06-22T00:11:09;5.10;;;4.70;;
819;SDS011;392;48.838;2.322;2023-06-22T00:13:37;5.10;;;4.70;;
819;SDS011;392;48.838;2.322;2023-06-22T00:16:04;4.90;;;4.40;;
819;SDS011;392;48.838;2.322;2023-06-22T00:18:32;5.43;;;5.13;;
819;SDS011;392;48.838;2.322;2023-06-22T00:21:00;4.37;;;4.07;;
819;SDS011;392;48.838;2.322;2023-06-22T00:23:28;4.97;;;4.67;;
819;SDS011;392;48.838;2.322;2023-06-22T00:25:59;4.77;;;4.47;;
819;SDS011;392;48.838;2.322;2023-06-22T00:28:26;5.47;;;5.07;;
819;SDS011;392;48.838;2.322;2023-06-22T00:30:54;4.93;;;4.63;;
819;SDS011;392;48.838;2.322;2023-06-22T00:33:21;5.20;;;4.80;;
819;SDS011;392;48.838;2.322;2023-06-22T00:35:48;5.20;;;4.80;;
819;SDS011;392;48.838;2.322;2023-06-22T00:38:19;5.37;;;4.83;;
819;SDS011;392;48.838;2.322;2023-06-22T00:40:46;6.80;;;4.37;;
819;SDS011;392;48.838;2.322;2023-06-22T00:43:13;5.60;;;5.20;;
819;SDS011;392;48.838;2.322;2023-06-22T00:45:41;5.17;;;4.87;;
819;SDS011;392;48.838;2.322;2023-06-22T00:48:09;4.57;;;4.37;;
819;SDS011;392;48.838;2.322;2023-06-22T00:50:36;5.00;;;4.50;;
819;SDS011;392;48.838;2.322;2023-06-22T00:53:05;5.17;;;4.87;;
819;SDS011;392;48.838;2.322;2023-06-22T00:55:36;5.00;;;4.70;;
819;SDS011;392;48.838;2.322;2023-06-22T00:58:05;4.80;;;4.40;;
819;SDS011;392;48.838;2.322;2023-06-22T01:00:35;4.73;;;4.33;;
819;SDS011;392;48.838;2.322;2023-06-22T01:03:03;4.77;;;4.37;;
819;SDS011;392;48.838;2.322;2023-06-22T01:05:34;5.13;;;4.73;;
819;SDS011;392;48.838;2.322;2023-06-22T01:08:07;3.87;;;3.57;;
819;SDS011;392;48.838;2.322;2023-06-22T01:10:52;4.73;;;4.33;;
819;SDS011;392;48.838;2.322;2023-06-22T01:13:26;4.70;;;4.30;;
819;SDS011;392;48.838;2.322;2023-06-22T01:16:00;5.10;;;4.60;;
819;SDS011;392;48.838;2.322;2023-06-22T01:18:31;4.97;;;4.67;;
819;SDS011;392;48.838;2.322;2023-06-22T01:21:03;5.23;;;4.87;;
819;SDS011;392;48.838;2.322;2023-06-22T01:23:39;5.13;;;4.83;;
819;SDS011;392;48.838;2.322;2023-06-22T01:26:20;4.77;;;4.37;;
819;SDS011;392;48.838;2.322;2023-06-22T01:29:02;4.40;;;4.00;;
819;SDS011;392;48.838;2.322;2023-06-22T01:31:32;4.97;;;4.57;;
819;SDS011;392;48.838;2.322;2023-06-22T01:34:02;6.73;;;4.80;;
819;SDS011;392;48.838;2.322;2023-06-22T01:36:32;4.67;;;4.20;;
819;SDS011;392;48.838;2.322;2023-06-22T01:39:01;4.77;;;4.47;;
819;SDS011;392;48.838;2.322;2023-06-22T01:41:29;5.60;;;5.20;;
819;SDS011;392;48.838;2.322;2023-06-22T01:44:01;5.33;;;4.90;;
819;SDS011;392;48.838;2.322;2023-06-22T01:46:31;4.97;;;4.57;;
819;SDS011;392;48.838;2.322;2023-06-22T01:48:59;5.03;;;4.63;;
819;SDS011;392;48.838;2.322;2023-06-22T01:51:27;4.90;;;4.50;;
819;SDS011;392;48.838;2.322;2023-06-22T01:53:58;4.70;;;4.40;;
819;SDS011;392;48.838;2.322;2023-06-22T01:56:25;4.47;;;4.17;;
819;SDS011;392;48.838;2.322;2023-06-22T01:58:55;5.70;;;5.30;;
819;SDS011;392;48.838;2.322;2023-06-22T02:01:54;4.97;;;4.57;;
819;SDS011;392;48.838;2.322;2023-06-22T02:04:31;4.87;;;4.47;;
819;SDS011;392;48.838;2.322;2023-06-22T02:07:02;5.27;;;4.77;;
819;SDS011;392;48.838;2.322;2023-06-22T02:09:36;4.60;;;4.30;;
819;SDS011;392;48.838;2.322;2023-06-22T02:12:09;5.40;;;4.90;;
819;SDS011;392;48.838;2.322;2023-06-22T02:14:39;4.90;;;4.43;;
819;SDS011;392;48.838;2.322;2023-06-22T02:17:08;5.27;;;4.87;;
819;SDS011;392;48.838;2.322;2023-06-22T02:19:36;5.23;;;4.73;;
819;SDS011;392;48.838;2.322;2023-06-22T02:22:04;7.93;;;5.13;;
819;SDS011;392;48.838;2.322;2023-06-22T02:24:32;4.97;;;4.60;;
819;SDS011;392;48.838;2.322;2023-06-22T02:26:59;6.03;;;5.10;;
819;SDS011;392;48.838;2.322;2023-06-22T02:29:31;4.63;;;4.13;;
819;SDS011;392;48.838;2.322;2023-06-22T02:32:00;5.20;;;4.80;;
819;SDS011;392;48.838;2.322;2023-06-22T02:34:27;4.50;;;4.20;;
819;SDS011;392;48.838;2.322;2023-06-22T02:36:54;5.33;;;4.83;;
819;SDS011;392;48.838;2.322;2023-06-22T02:39:22;4.73;;;4.30;;
819;SDS011;392;48.838;2.322;2023-06-22T02:41:51;5.20;;;4.70;;
819;SDS011;392;48.838;2.322;2023-06-22T02:44:22;5.30;;;4.90;;
819;SDS011;392;48.838;2.322;2023-06-22T02:46:49;5.10;;;4.70;;
819;SDS011;392;48.838;2.322;2023-06-22T02:49:18;5.00;;;4.60;;
819;SDS011;392;48.838;2.322;2023-06-22T02:51:47;5.03;;;4.63;;
819;SDS011;392;48.838;2.322;2023-06-22T02:54:18;4.77;;;4.37;;
819;SDS011;392;48.838;2.322;2023-06-22T02:56:47;5.33;;;4.93;;
819;SDS011;392;48.838;2.322;2023-06-22T02:59:16;5.17;;;4.73;;
819;SDS011;392;48.838;2.322;2023-06-22T03:01:49;5.10;;;4.70;;
819;SDS011;392;48.838;2.322;2023-06-22T03:04:25;5.23;;;4.83;;
819;SDS011;392;48.838;2.322;2023-06-22T03:06:53;5.97;;;5.50;;
819;SDS011;392;48.838;2.322;2023-06-22T03:09:20;5.50;;;5.10;;
819;SDS011;392;48.838;2.322;2023-06-22T03:11:47;4.80;;;4.47;;
819;SDS011;392;48.838;2.322;2023-06-22T03:14:15;5.03;;;4.63;;
819;SDS011;392;48.838;2.322;2023-06-22T03:16:42;5.03;;;4.73;;
819;SDS011;392;48.838;2.322;2023-06-22T03:19:10;5.43;;;4.93;;
819;SDS011;392;48.838;2.322;2023-06-22T03:21:39;5.57;;;5.07;;
819;SDS011;392;48.838;2.322;2023-06-22T03:24:07;5.17;;;4.77;;
819;SDS011;392;48.838;2.322;2023-06-22T03:26:34;5.60;;;5.20;;
819;SDS011;392;48.838;2.322;2023-06-22T03:29:01;5.17;;;4.77;;
819;SDS011;392;48.838;2.322;2023-06-22T03:31:30;5.47;;;4.90;;
819;SDS011;392;48.838;2.322;2023-06-22T03:33:58;5.43;;;4.93;;
819;SDS011;392;48.838;2.322;2023-06-22T03:36:26;4.87;;;4.50;;
819;SDS011;392;48.838;2.322;2023-06-22T03:38:54;6.03;;;5.10;;
819;SDS011;392;48.838;2.322;2023-06-22T03:41:22;4.87;;;4.47;;
819;SDS011;392;48.838;2.322;2023-06-22T03:43:50;5.17;;;4.67;;
819;SDS011;392;48.838;2.322;2023-06-22T03:46:18;5.43;;;5.00;;
819;SDS011;392;48.838;2.322;2023-06-22T03:48:45;5.60;;;5.10;;
819;SDS011;392;48.838;2.322;2023-06-22T03:51:13;5.60;;;5.10;;
819;SDS011;392;48.838;2.322;2023-06-22T03:53:40;5.20;;;4.80;;
819;SDS011;392;48.838;2.322;2023-06-22T03:56:10;5.40;;;4.90;;
819;SDS011;392;48.838;2.322;2023-06-22T03:58:37;5.83;;;5.33;;
819;SDS011;392;48.838;2.322;2023-06-22T04:01:08;5.33;;;4.83;;
819;SDS011;392;48.838;2.322;2023-06-22T04:03:36;5.83;;;5.33;;
819;SDS011;392;48.838;2.322;2023-06-22T04:06:04;5.00;;;4.60;;
819;SDS011;392;48.838;2.322;2023-06-22T04:08:31;5.07;;;4.67;;
819;SDS011;392;48.838;2.322;2023-06-22T04:10:58;5.67;;;5.23;;
819;SDS011;392;48.838;2.322;2023-06-22T04:13:27;5.30;;;4.90;;
819;SDS011;392;48.838;2.322;2023-06-22T04:15:54;5.87;;;5.10;;
819;SDS011;392;48.838;2.322;2023-06-22T04:18:21;5.40;;;4.90;;
819;SDS011;392;48.838;2.322;2023-06-22T04:20:49;5.20;;;4.70;;
819;SDS011;392;48.838;2.322;2023-06-22T04:23:16;5.37;;;4.97;;
819;SDS011;392;48.838;2.322;2023-06-22T04:25:43;5.00;;;4.60;;
819;SDS011;392;48.838;2.322;2023-06-22T04:28:11;5.53;;;5.03;;
819;SDS011;392;48.838;2.322;2023-06-22T04:30:39;7.10;;;6.43;;
819;SDS011;392;48.838;2.322;2023-06-22T04:33:12;5.70;;;5.30;;
819;SDS011;392;48.838;2.322;2023-06-22T04:35:40;6.40;;;5.77;;
819;SDS011;392;48.838;2.322;2023-06-22T04:38:07;5.53;;;4.77;;
819;SDS011;392;48.838;2.322;2023-06-22T04:40:38;5.63;;;5.23;;
819;SDS011;392;48.838;2.322;2023-06-22T04:43:05;6.10;;;5.70;;
819;SDS011;392;48.838;2.322;2023-06-22T04:45:35;6.50;;;5.90;;
819;SDS011;392;48.838;2.322;2023-06-22T04:48:05;6.60;;;6.00;;
819;SDS011;392;48.838;2.322;2023-06-22T04:50:33;7.10;;;6.40;;
819;SDS011;392;48.838;2.322;2023-06-22T04:53:01;7.17;;;6.57;;
819;SDS011;392;48.838;2.322;2023-06-22T04:55:31;7.40;;;6.70;;
819;SDS011;392;48.838;2.322;2023-06-22T04:57:58;7.00;;;6.30;;
819;SDS011;392;48.838;2.322;2023-06-22T05:00:30;7.30;;;6.67;;
819;SDS011;392;48.838;2.322;2023-06-22T05:02:58;8.17;;;6.90;;
819;SDS011;392;48.838;2.322;2023-06-22T05:05:27;7.90;;;7.10;;
819;SDS011;392;48.838;2.322;2023-06-22T05:07:56;7.17;;;6.47;;
819;SDS011;392;48.838;2.322;2023-06-22T05:10:25;7.53;;;6.83;;
819;SDS011;392;48.838;2.322;2023-06-22T05:12:53;9.07;;;7.50;;
819;SDS011;392;48.838;2.322;2023-06-22T05:15:20;8.73;;;7.90;;
819;SDS011;392;48.838;2.322;2023-06-22T05:17:52;7.90;;;7.30;;
819;SDS011;392;48.838;2.322;2023-06-22T05:20:19;8.60;;;7.67;;
819;SDS011;392;48.838;2.322;2023-06-22T05:22:48;8.67;;;7.87;;
819;SDS011;392;48.838;2.322;2023-06-22T05:25:16;8.80;;;7.90;;
819;SDS011;392;48.838;2.322;2023-06-22T05:27:43;10.10;;;9.10;;
819;SDS011;392;48.838;2.322;2023-06-22T05:30:11;9.33;;;8.43;;
819;SDS011;392;48.838;2.322;2023-06-22T05:32:39;9.60;;;8.70;;
819;SDS011;392;48.838;2.322;2023-06-22T05:35:06;9.27;;;8.30;;
819;SDS011;392;48.838;2.322;2023-06-22T05:37:34;9.30;;;8.40;;
819;SDS011;392;48.838;2.322;2023-06-22T05:40:03;8.80;;;8.00;;
819;SDS011;392;48.838;2.322;2023-06-22T05:42:33;8.53;;;7.83;;
819;SDS011;392;48.838;2.322;2023-06-22T05:45:00;11.30;;;8.37;;
819;SDS011;392;48.838;2.322;2023-06-22T05:47:27;8.90;;;8.00;;
819;SDS011;392;48.838;2.322;2023-06-22T05:49:54;9.60;;;8.70;;
819;SDS011;392;48.838;2.322;2023-06-22T05:52:22;10.10;;;7.33;;
819;SDS011;392;48.838;2.322;2023-06-22T05:54:49;11.60;;;9.80;;
819;SDS011;392;48.838;2.322;2023-06-22T05:57:17;10.07;;;9.10;;
819;SDS011;392;48.838;2.322;2023-06-22T05:59:47;12.50;;;9.87;;
819;SDS011;392;48.838;2.322;2023-06-22T06:02:14;12.70;;;10.47;;
819;SDS011;392;48.838;2.322;2023-06-22T06:04:42;11.17;;;10.07;;
819;SDS011;392;48.838;2.322;2023-06-22T06:07:09;11.30;;;8.60;;
819;SDS011;392;48.838;2.322;2023-06-22T06:09:36;12.83;;;11.57;;
819;SDS011;392;48.838;2.322;2023-06-22T06:12:04;12.77;;;9.20;;
819;SDS011;392;48.838;2.322;2023-06-22T06:14:33;15.10;;;12.50;;
819;SDS011;392;48.838;2.322;2023-06-22T06:17:00;16.20;;;11.97;;
819;SDS011;392;48.838;2.322;2023-06-22T06:19:27;12.23;;;11.23;;
819;SDS011;392;48.838;2.322;2023-06-22T06:21:55;15.10;;;13.67;;
819;SDS011;392;48.838;2.322;2023-06-22T06:24:22;11.50;;;10.10;;
819;SDS011;392;48.838;2.322;2023-06-22T06:26:49;17.63;;;14.20;;
819;SDS011;392;48.838;2.322;2023-06-22T06:29:16;14.47;;;12.97;;
819;SDS011;392;48.838;2.322;2023-06-22T06:31:45;15.77;;;14.37;;
819;SDS011;392;48.838;2.322;2023-06-22T06:34:13;15.67;;;14.17;;
819;SDS011;392;48.838;2.322;2023-06-22T06:36:40;12.43;;;11.10;;
819;SDS011;392;48.838;2.322;2023-06-22T06:39:08;15.17;;;13.80;;
819;SDS011;392;48.838;2.322;2023-06-22T06:41:35;26.40;;;14.60;;
819;SDS011;392;48.838;2.322;2023-06-22T06:44:02;17.80;;;16.07;;
819;SDS011;392;48.838;2.322;2023-06-22T06:46:30;16.97;;;15.30;;
819;SDS011;392;48.838;2.322;2023-06-22T06:48:59;17.80;;;15.33;;
819;SDS011;392;48.838;2.322;2023-06-22T06:51:26;17.80;;;15.93;;
819;SDS011;392;48.838;2.322;2023-06-22T06:53:53;16.27;;;14.13;;
819;SDS011;392;48.838;2.322;2023-06-22T06:56:20;15.80;;;14.13;;
819;SDS011;392;48.838;2.322;2023-06-22T06:58:49;16.40;;;14.73;;
819;SDS011;392;48.838;2.322;2023-06-22T07:01:17;18.50;;;13.80;;
819;SDS011;392;48.838;2.322;2023-06-22T07:03:45;22.87;;;17.57;;
819;SDS011;392;48.838;2.322;2023-06-22T07:06:14;17.90;;;14.30;;
819;SDS011;392;48.838;2.322;2023-06-22T07:08:41;19.30;;;16.53;;
819;SDS011;392;48.838;2.322;2023-06-22T07:11:09;17.80;;;16.00;;
819;SDS011;392;48.838;2.322;2023-06-22T07:13:36;19.13;;;17.17;;
819;SDS011;392;48.838;2.322;2023-06-22T07:16:04;16.50;;;14.80;;
819;SDS011;392;48.838;2.322;2023-06-22T07:18:31;20.53;;;18.33;;
819;SDS011;392;48.838;2.322;2023-06-22T07:20:58;18.57;;;16.70;;
819;SDS011;392;48.838;2.322;2023-06-22T07:23:27;23.13;;;20.70;;
819;SDS011;392;48.838;2.322;2023-06-22T07:25:54;24.03;;;17.73;;
819;SDS011;392;48.838;2.322;2023-06-22T07:28:21;22.70;;;19.67;;
819;SDS011;392;48.838;2.322;2023-06-22T07:30:49;23.27;;;20.77;;
819;SDS011;392;48.838;2.322;2023-06-22T07:33:16;23.63;;;19.10;;
819;SDS011;392;48.838;2.322;2023-06-22T07:35:43;24.53;;;20.70;;
819;SDS011;392;48.838;2.322;2023-06-22T07:38:12;20.33;;;18.13;;
819;SDS011;392;48.838;2.322;2023-06-22T07:40:42;16.10;;;12.90;;
819;SDS011;392;48.838;2.322;2023-06-22T07:43:10;26.27;;;23.63;;
819;SDS011;392;48.838;2.322;2023-06-22T07:45:37;20.37;;;18.20;;
819;SDS011;392;48.838;2.322;2023-06-22T07:48:06;14.33;;;12.83;;
819;SDS011;392;48.838;2.322;2023-06-22T07:50:33;17.90;;;16.10;;
819;SDS011;392;48.838;2.322;2023-06-22T07:53:00;24.73;;;22.13;;
819;SDS011;392;48.838;2.322;2023-06-22T07:55:27;14.53;;;13.00;;
819;SDS011;392;48.838;2.322;2023-06-22T07:57:56;18.50;;;16.23;;
819;SDS011;392;48.838;2.322;2023-06-22T08:00:23;16.53;;;14.93;;
819;SDS011;392;48.838;2.322;2023-06-22T08:02:51;14.33;;;12.93;;
819;SDS011;392;48.838;2.322;2023-06-22T08:05:18;19.30;;;17.30;;
819;SDS011;392;48.838;2.322;2023-06-22T08:07:45;15.00;;;13.50;;
819;SDS011;392;48.838;2.322;2023-06-22T08:10:13;12.10;;;10.80;;
819;SDS011;392;48.838;2.322;2023-06-22T08:12:40;12.80;;;11.60;;
819;SDS011;392;48.838;2.322;2023-06-22T08:15:10;17.50;;;15.60;;
819;SDS011;392;48.838;2.322;2023-06-22T08:17:37;10.43;;;9.43;;
819;SDS011;392;48.838;2.322;2023-06-22T08:20:05;13.83;;;12.60;;
819;SDS011;392;48.838;2.322;2023-06-22T08:22:37;20.33;;;18.23;;
819;SDS011;392;48.838;2.322;2023-06-22T08:25:05;21.07;;;18.47;;
819;SDS011;392;48.838;2.322;2023-06-22T08:27:34;22.13;;;19.60;;
819;SDS011;392;48.838;2.322;2023-06-22T08:30:02;21.23;;;19.23;;
819;SDS011;392;48.838;2.322;2023-06-22T08:32:31;20.93;;;17.97;;
819;SDS011;392;48.838;2.322;2023-06-22T08:34:59;20.47;;;18.27;;
819;SDS011;392;48.838;2.322;2023-06-22T08:37:26;18.90;;;17.10;;
819;SDS011;392;48.838;2.322;2023-06-22T08:39:56;19.00;;;17.10;;
819;SDS011;392;48.838;2.322;2023-06-22T08:42:26;17.70;;;15.97;;
819;SDS011;392;48.838;2.322;2023-06-22T08:44:53;13.33;;;12.00;;
819;SDS011;392;48.838;2.322;2023-06-22T08:47:21;20.20;;;18.10;;
819;SDS011;392;48.838;2.322;2023-06-22T08:49:50;22.03;;;19.93;;
819;SDS011;392;48.838;2.322;2023-06-22T08:52:17;14.43;;;12.97;;
819;SDS011;392;48.838;2.322;2023-06-22T08:54:45;19.97;;;17.90;;
819;SDS011;392;48.838;2.322;2023-06-22T08:57:12;17.03;;;15.43;;
819;SDS011;392;48.838;2.322;2023-06-22T08:59:39;14.93;;;13.60;;
819;SDS011;392;48.838;2.322;2023-06-22T09:02:07;20.03;;;18.03;;
819;SDS011;392;48.838;2.322;2023-06-22T09:04:34;15.73;;;14.20;;
819;SDS011;392;48.838;2.322;2023-06-22T09:07:03;13.37;;;11.97;;
819;SDS011;392;48.838;2.322;2023-06-22T09:09:31;15.77;;;14.10;;
819;SDS011;392;48.838;2.322;2023-06-22T09:11:59;12.67;;;11.57;;
819;SDS011;392;48.838;2.322;2023-06-22T09:14:26;17.33;;;13.57;;
819;SDS011;392;48.838;2.322;2023-06-22T09:16:53;15.17;;;13.67;;
819;SDS011;392;48.838;2.322;2023-06-22T09:19:21;17.60;;;16.00;;
819;SDS011;392;48.838;2.322;2023-06-22T09:21:48;19.00;;;17.03;;
819;SDS011;392;48.838;2.322;2023-06-22T09:24:17;13.70;;;12.30;;
819;SDS011;392;48.838;2.322;2023-06-22T09:26:44;72.00;;;19.83;;
819;SDS011;392;48.838;2.322;2023-06-22T09:29:11;16.57;;;14.87;;
819;SDS011;392;48.838;2.322;2023-06-22T09:31:39;17.33;;;15.57;;
819;SDS011;392;48.838;2.322;2023-06-22T09:34:06;17.07;;;15.47;;
819;SDS011;392;48.838;2.322;2023-06-22T09:36:33;13.40;;;11.07;;
819;SDS011;392;48.838;2.322;2023-06-22T09:39:00;15.63;;;14.00;;
819;SDS011;392;48.838;2.322;2023-06-22T09:41:33;15.83;;;14.07;;
819;SDS011;392;48.838;2.322;2023-06-22T09:44:00;16.23;;;14.50;;
819;SDS011;392;48.838;2.322;2023-06-22T09:46:27;15.83;;;14.20;;
819;SDS011;392;48.838;2.322;2023-06-22T09:48:54;16.37;;;14.70;;
819;SDS011;392;48.838;2.322;2023-06-22T09:51:22;14.63;;;13.13;;
819;SDS011;392;48.838;2.322;2023-06-22T09:53:49;17.33;;;14.00;;
819;SDS011;392;48.838;2.322;2023-06-22T09:56:16;14.80;;;13.30;;
819;SDS011;392;48.838;2.322;2023-06-22T09:58:46;12.67;;;11.47;;
819;SDS011;392;48.838;2.322;2023-06-22T10:01:15;18.10;;;13.87;;
819;SDS011;392;48.838;2.322;2023-06-22T10:03:43;13.27;;;11.80;;
819;SDS011;392;48.838;2.322;2023-06-22T10:06:10;12.57;;;11.47;;
819;SDS011;392;48.838;2.322;2023-06-22T10:08:37;13.87;;;12.60;;
819;SDS011;392;48.838;2.322;2023-06-22T10:11:06;14.57;;;13.07;;
819;SDS011;392;48.838;2.322;2023-06-22T10:13:33;15.37;;;13.90;;
819;SDS011;392;48.838;2.322;2023-06-22T10:16:01;14.83;;;13.40;;
819;SDS011;392;48.838;2.322;2023-06-22T10:18:29;10.07;;;9.07;;
819;SDS011;392;48.838;2.322;2023-06-22T10:20:57;13.87;;;12.57;;
819;SDS011;392;48.838;2.322;2023-06-22T10:23:24;14.13;;;12.83;;
819;SDS011;392;48.838;2.322;2023-06-22T10:25:51;13.30;;;11.97;;
819;SDS011;392;48.838;2.322;2023-06-22T10:28:18;14.07;;;12.57;;
819;SDS011;392;48.838;2.322;2023-06-22T10:30:46;13.60;;;12.30;;
819;SDS011;392;48.838;2.322;2023-06-22T10:33:14;10.83;;;9.80;;
819;SDS011;392;48.838;2.322;2023-06-22T10:35:42;12.23;;;11.10;;
819;SDS011;392;48.838;2.322;2023-06-22T10:38:09;13.00;;;11.90;;
819;SDS011;392;48.838;2.322;2023-06-22T10:40:36;10.70;;;9.60;;
819;SDS011;392;48.838;2.322;2023-06-22T10:43:05;10.70;;;9.70;;
819;SDS011;392;48.838;2.322;2023-06-22T10:45:32;12.97;;;11.67;;
819;SDS011;392;48.838;2.322;2023-06-22T10:47:59;11.20;;;10.20;;
819;SDS011;392;48.838;2.322;2023-06-22T10:50:28;11.87;;;10.87;;
819;SDS011;392;48.838;2.322;2023-06-22T10:52:56;12.17;;;11.17;;
819;SDS011;392;48.838;2.322;2023-06-22T10:55:24;13.40;;;12.40;;
819;SDS011;392;48.838;2.322;2023-06-22T10:57:51;12.47;;;11.40;;
819;SDS011;392;48.838;2.322;2023-06-22T11:00:18;12.17;;;11.10;;
819;SDS011;392;48.838;2.322;2023-06-22T11:02:47;11.63;;;10.63;;
819;SDS011;392;48.838;2.322;2023-06-22T11:05:15;12.07;;;10.97;;
819;SDS011;392;48.838;2.322;2023-06-22T11:07:44;12.77;;;11.67;;
819;SDS011;392;48.838;2.322;2023-06-22T11:10:11;14.00;;;12.87;;
819;SDS011;392;48.838;2.322;2023-06-22T11:12:39;11.53;;;10.57;;
819;SDS011;392;48.838;2.322;2023-06-22T11:15:08;11.37;;;10.57;;
819;SDS011;392;48.838;2.322;2023-06-22T11:17:35;10.83;;;10.03;;
819;SDS011;392;48.838;2.322;2023-06-22T11:20:03;11.40;;;10.50;;
819;SDS011;392;48.838;2.322;2023-06-22T11:22:36;12.07;;;10.87;;
819;SDS011;392;48.838;2.322;2023-06-22T11:25:06;11.10;;;10.30;;
819;SDS011;392;48.838;2.322;2023-06-22T11:27:36;10.40;;;9.60;;
819;SDS011;392;48.838;2.322;2023-06-22T11:30:04;11.80;;;10.80;;
819;SDS011;392;48.838;2.322;2023-06-22T11:32:33;11.50;;;10.60;;
819;SDS011;392;48.838;2.322;2023-06-22T11:35:00;12.40;;;11.40;;
819;SDS011;392;48.838;2.322;2023-06-22T11:37:28;10.90;;;9.80;;
819;SDS011;392;48.838;2.322;2023-06-22T11:39:55;11.50;;;10.50;;
819;SDS011;392;48.838;2.322;2023-06-22T11:42:25;8.60;;;8.00;;
819;SDS011;392;48.838;2.322;2023-06-22T11:44:53;9.97;;;9.00;;
819;SDS011;392;48.838;2.322;2023-06-22T11:47:20;11.03;;;10.10;;
819;SDS011;392;48.838;2.322;2023-06-22T11:49:48;11.50;;;10.40;;
819;SDS011;392;48.838;2.322;2023-06-22T11:52:15;11.57;;;10.57;;
819;SDS011;392;48.838;2.322;2023-06-22T11:54:43;11.43;;;10.47;;
819;SDS011;392;48.838;2.322;2023-06-22T11:57:11;11.90;;;10.90;;
819;SDS011;392;48.838;2.322;2023-06-22T11:59:39;13.80;;;12.50;;
819;SDS011;392;48.838;2.322;2023-06-22T12:02:07;15.23;;;13.93;;
819;SDS011;392;48.838;2.322;2023-06-22T12:04:34;11.97;;;10.97;;
819;SDS011;392;48.838;2.322;2023-06-22T12:07:03;14.20;;;13.00;;
819;SDS011;392;48.838;2.322;2023-06-22T12:09:30;12.67;;;11.57;;
819;SDS011;392;48.838;2.322;2023-06-22T12:11:58;16.30;;;14.60;;
819;SDS011;392;48.838;2.322;2023-06-22T12:14:25;13.47;;;12.27;;
819;SDS011;392;48.838;2.322;2023-06-22T12:16:54;13.57;;;12.50;;
819;SDS011;392;48.838;2.322;2023-06-22T12:19:21;15.77;;;14.50;;
819;SDS011;392;48.838;2.322;2023-06-22T12:21:48;13.93;;;12.83;;
819;SDS011;392;48.838;2.322;2023-06-22T12:24:15;14.00;;;12.83;;
819;SDS011;392;48.838;2.322;2023-06-22T12:26:43;13.27;;;12.27;;
819;SDS011;392;48.838;2.322;2023-06-22T12:29:10;14.50;;;13.50;;
819;SDS011;392;48.838;2.322;2023-06-22T12:31:37;12.97;;;11.97;;
819;SDS011;392;48.838;2.322;2023-06-22T12:34:06;11.93;;;11.03;;
819;SDS011;392;48.838;2.322;2023-06-22T12:36:33;13.77;;;12.47;;
819;SDS011;392;48.838;2.322;2023-06-22T12:39:00;12.67;;;11.57;;
819;SDS011;392;48.838;2.322;2023-06-22T12:41:27;12.60;;;11.40;;
819;SDS011;392;48.838;2.322;2023-06-22T12:43:55;13.57;;;12.23;;
819;SDS011;392;48.838;2.322;2023-06-22T12:46:22;15.60;;;14.00;;
819;SDS011;392;48.838;2.322;2023-06-22T12:48:49;11.57;;;10.67;;
819;SDS011;392;48.838;2.322;2023-06-22T12:51:21;12.40;;;11.30;;
819;SDS011;392;48.838;2.322;2023-06-22T12:53:49;12.17;;;11.20;;
819;SDS011;392;48.838;2.322;2023-06-22T12:56:16;12.43;;;11.40;;
819;SDS011;392;48.838;2.322;2023-06-22T12:58:43;11.90;;;11.03;;
819;SDS011;392;48.838;2.322;2023-06-22T13:01:11;12.70;;;11.60;;
819;SDS011;392;48.838;2.322;2023-06-22T13:03:38;12.67;;;11.70;;
819;SDS011;392;48.838;2.322;2023-06-22T13:06:05;12.47;;;11.37;;
819;SDS011;392;48.838;2.322;2023-06-22T13:08:34;13.33;;;12.23;;
819;SDS011;392;48.838;2.322;2023-06-22T13:11:01;17.57;;;15.87;;
819;SDS011;392;48.838;2.322;2023-06-22T13:13:29;15.00;;;13.60;;
819;SDS011;392;48.838;2.322;2023-06-22T13:15:56;15.43;;;14.00;;
819;SDS011;392;48.838;2.322;2023-06-22T13:18:23;14.57;;;13.27;;
819;SDS011;392;48.838;2.322;2023-06-22T13:20:50;17.17;;;15.57;;
819;SDS011;392;48.838;2.322;2023-06-22T13:23:19;14.80;;;13.50;;
819;SDS011;392;48.838;2.322;2023-06-22T13:25:49;18.03;;;16.57;;
819;SDS011;392;48.838;2.322;2023-06-22T13:28:16;15.53;;;14.27;;
819;SDS011;392;48.838;2.322;2023-06-22T13:30:44;17.97;;;16.37;;
819;SDS011;392;48.838;2.322;2023-06-22T13:33:12;18.33;;;16.73;;
819;SDS011;392;48.838;2.322;2023-06-22T13:35:40;17.10;;;15.63;;
819;SDS011;392;48.838;2.322;2023-06-22T13:38:08;20.00;;;18.27;;
819;SDS011;392;48.838;2.322;2023-06-22T13:40:35;15.33;;;13.97;;
819;SDS011;392;48.838;2.322;2023-06-22T13:43:05;17.50;;;16.00;;
819;SDS011;392;48.838;2.322;2023-06-22T13:45:32;21.07;;;18.87;;
819;SDS011;392;48.838;2.322;2023-06-22T13:48:00;18.27;;;16.60;;
819;SDS011;392;48.838;2.322;2023-06-22T13:50:27;18.93;;;17.43;;
819;SDS011;392;48.838;2.322;2023-06-22T13:52:55;20.23;;;18.27;;
819;SDS011;392;48.838;2.322;2023-06-22T13:55:22;17.40;;;16.03;;
819;SDS011;392;48.838;2.322;2023-06-22T13:57:49;15.63;;;14.20;;
819;SDS011;392;48.838;2.322;2023-06-22T14:00:19;15.87;;;14.40;;
819;SDS011;392;48.838;2.322;2023-06-22T14:02:46;15.80;;;14.37;;
819;SDS011;392;48.838;2.322;2023-06-22T14:05:13;14.73;;;13.40;;
819;SDS011;392;48.838;2.322;2023-06-22T14:07:41;17.00;;;15.70;;
819;SDS011;392;48.838;2.322;2023-06-22T14:10:08;14.47;;;13.27;;
819;SDS011;392;48.838;2.322;2023-06-22T14:12:36;15.30;;;13.93;;
819;SDS011;392;48.838;2.322;2023-06-22T14:15:04;12.43;;;11.53;;
819;SDS011;392;48.838;2.322;2023-06-22T14:17:33;14.00;;;12.77;;
819;SDS011;392;48.838;2.322;2023-06-22T14:20:01;13.80;;;11.77;;
819;SDS011;392;48.838;2.322;2023-06-22T14:22:30;12.23;;;11.20;;
819;SDS011;392;48.838;2.322;2023-06-22T14:24:58;14.20;;;13.20;;
819;SDS011;392;48.838;2.322;2023-06-22T14:27:25;12.50;;;11.50;;
819;SDS011;392;48.838;2.322;2023-06-22T14:29:52;11.20;;;10.00;;
819;SDS011;392;48.838;2.322;2023-06-22T14:32:19;14.53;;;12.00;;
819;SDS011;392;48.838;2.322;2023-06-22T14:34:48;13.10;;;11.90;;
819;SDS011;392;48.838;2.322;2023-06-22T14:37:16;10.20;;;9.43;;
819;SDS011;392;48.838;2.322;2023-06-22T14:39:43;14.43;;;13.00;;
819;SDS011;392;48.838;2.322;2023-06-22T14:42:10;11.57;;;10.67;;
819;SDS011;392;48.838;2.322;2023-06-22T14:44:38;10.20;;;9.40;;
819;SDS011;392;48.838;2.322;2023-06-22T14:47:05;10.87;;;9.40;;
819;SDS011;392;48.838;2.322;2023-06-22T14:49:34;10.30;;;9.50;;
819;SDS011;392;48.838;2.322;2023-06-22T14:52:03;10.00;;;9.10;;
819;SDS011;392;48.838;2.322;2023-06-22T14:54:31;9.93;;;9.23;;
819;SDS011;392;48.838;2.322;2023-06-22T14:56:59;9.83;;;8.93;;
819;SDS011;392;48.838;2.322;2023-06-22T14:59:26;8.70;;;8.10;;
819;SDS011;392;48.838;2.322;2023-06-22T15:01:53;10.10;;;9.30;;
819;SDS011;392;48.838;2.322;2023-06-22T15:04:21;10.40;;;9.60;;
819;SDS011;392;48.838;2.322;2023-06-22T15:06:48;10.73;;;9.83;;
819;SDS011;392;48.838;2.322;2023-06-22T15:09:17;10.97;;;10.07;;
819;SDS011;392;48.838;2.322;2023-06-22T15:11:44;9.90;;;9.20;;
819;SDS011;392;48.838;2.322;2023-06-22T15:14:13;9.97;;;9.17;;
819;SDS011;392;48.838;2.322;2023-06-22T15:16:40;10.20;;;9.30;;
819;SDS011;392;48.838;2.322;2023-06-22T15:19:07;11.73;;;10.93;;
819;SDS011;392;48.838;2.322;2023-06-22T15:21:37;10.00;;;9.20;;
819;SDS011;392;48.838;2.322;2023-06-22T15:24:05;9.00;;;8.20;;
819;SDS011;392;48.838;2.322;2023-06-22T15:26:34;9.47;;;8.60;;
819;SDS011;392;48.838;2.322;2023-06-22T15:29:01;9.17;;;8.50;;
819;SDS011;392;48.838;2.322;2023-06-22T15:31:28;9.67;;;8.80;;
819;SDS011;392;48.838;2.322;2023-06-22T15:33:56;9.13;;;8.43;;